Time;durP1;ratioP1;P1;durP2;ratioP2;P2;SDS_P1;SDS_P2;PMS_P1;PMS_P2;Temp;Humidity;BMP_temperature;BMP_pressure;BME280_temperature;BME280_humidity;BME280_pressure;Samples;Min_cycle;Max_cycle;Signal;HPM_P1;HPM_P2
2022/12/25 00:01:15;;;;;;;29.30;10.10;;;;;;;6.01;98.42;100461.55;103189;1282;22449;-62
2022/12/25 00:03:52;;;;;;;35.10;11.20;;;;;;;5.95;98.57;100461.98;102813;1270;22462;-63
2022/12/25 00:06:23;;;;;;;33.90;12.50;;;;;;;5.90;98.47;100465.85;103062;1275;22593;-61
2022/12/25 00:08:55;;;;;;;31.00;11.80;;;;;;;5.83;98.69;100473.78;102934;1282;22518;-61
2022/12/25 00:11:26;;;;;;;35.30;12.20;;;;;;;5.81;98.98;100471.33;103032;1282;22544;-61
2022/12/25 00:13:58;;;;;;;27.90;10.00;;;;;;;5.81;99.05;100477.09;103081;1306;22467;-61
2022/12/25 00:16:30;;;;;;;27.00;10.00;;;;;;;5.81;99.09;100480.56;102811;1277;22562;-60
2022/12/25 00:19:02;;;;;;;23.70;7.70;;;;;;;5.82;99.30;100486.48;102890;1274;24410;-61
2022/12/25 00:21:33;;;;;;;19.80;7.40;;;;;;;5.84;99.47;100486.13;102875;1291;23252;-62
2022/12/25 00:24:06;;;;;;;17.70;6.10;;;;;;;5.84;99.58;100488.50;102833;1282;22515;-60
2022/12/25 00:26:38;;;;;;;17.70;5.80;;;;;;;5.83;99.77;100495.95;102940;1275;22591;-62
2022/12/25 00:29:13;;;;;;;18.20;4.60;;;;;;;5.83;100.00;100495.56;103070;1282;22466;-60
2022/12/25 00:31:45;;;;;;;16.90;3.80;;;;;;;5.84;100.00;100496.88;102950;1281;25469;-60
2022/12/25 00:34:18;;;;;;;19.10;4.80;;;;;;;5.85;100.00;100499.02;103082;1281;22476;-61
2022/12/25 00:36:53;;;;;;;15.60;3.60;;;;;;;5.86;100.00;100499.60;102875;1274;22523;-61
2022/12/25 00:39:24;;;;;;;14.80;3.90;;;;;;;5.88;100.00;100501.04;103002;1274;22612;-60
2022/12/25 00:44:46;;;;;;;19.40;4.40;;;;;;;5.93;100.00;100501.12;102943;1306;22429;-60
2022/12/25 00:47:22;;;;;;;15.00;4.30;;;;;;;5.96;100.00;100508.09;102812;1292;23324;-60
2022/12/25 00:49:56;;;;;;;16.30;4.60;;;;;;;5.99;100.00;100512.37;102903;1282;22654;-61
2022/12/25 00:52:29;;;;;;;18.30;4.80;;;;;;;5.99;100.00;100507.36;102925;1282;22598;-60
2022/12/25 00:55:01;;;;;;;19.10;5.40;;;;;;;6.01;100.00;100506.58;102965;1282;24263;-60
2022/12/25 00:57:36;;;;;;;19.60;5.00;;;;;;;6.02;100.00;100506.41;102896;1274;24336;-60
2022/12/25 01:00:09;;;;;;;23.70;6.20;;;;;;;6.02;100.00;100518.04;103037;1274;24317;-62
2022/12/25 01:02:41;;;;;;;20.10;6.00;;;;;;;6.01;100.00;100521.56;103027;1305;22463;-60
2022/12/25 01:05:12;;;;;;;18.80;6.30;;;;;;;6.01;100.00;100521.18;103321;1285;22727;-61
2022/12/25 01:07:44;;;;;;;17.60;5.60;;;;;;;6.01;100.00;100522.44;102904;1282;26487;-61
2022/12/25 01:10:24;;;;;;;17.10;5.90;;;;;;;6.01;100.00;100527.10;103095;1291;22466;-60
2022/12/25 01:12:56;;;;;;;19.80;6.60;;;;;;;6.02;100.00;100528.19;102970;1282;22470;-61
2022/12/25 01:15:27;;;;;;;21.70;6.30;;;;;;;6.02;100.00;100535.17;103033;1280;24328;-60
2022/12/25 01:17:59;;;;;;;23.50;8.10;;;;;;;6.00;100.00;100538.05;103032;1291;22489;-60
2022/12/25 01:20:31;;;;;;;22.40;6.50;;;;;;;6.00;100.00;100534.19;102829;1282;22992;-60
2022/12/25 01:23:05;;;;;;;24.30;7.40;;;;;;;6.00;100.00;100533.48;102843;1275;22464;-61
2022/12/25 01:25:37;;;;;;;23.70;6.70;;;;;;;6.01;100.00;100543.50;102916;1274;25643;-60
2022/12/25 01:28:09;;;;;;;17.60;5.40;;;;;;;5.99;100.00;100545.77;102818;1282;25347;-61
2022/12/25 01:30:40;;;;;;;19.20;5.30;;;;;;;5.98;100.00;100549.54;102958;1300;22627;-61
2022/12/25 01:33:12;;;;;;;21.40;5.50;;;;;;;5.98;100.00;100550.56;102976;1274;24020;-60
2022/12/25 01:35:43;;;;;;;17.10;4.90;;;;;;;5.97;100.00;100553.12;102878;1274;22509;-61
2022/12/25 01:38:14;;;;;;;18.10;4.90;;;;;;;5.96;100.00;100556.55;102780;1274;25998;-60
2022/12/25 01:40:46;;;;;;;15.90;4.10;;;;;;;5.93;100.00;100560.66;102986;1274;24031;-60
2022/12/25 01:43:25;;;;;;;19.20;5.00;;;;;;;5.90;100.00;100554.66;102930;1274;25362;-60
2022/12/25 01:46:02;;;;;;;16.50;4.40;;;;;;;5.88;100.00;100560.09;102850;1282;26540;-62
2022/12/25 01:48:43;;;;;;;19.80;4.70;;;;;;;5.86;100.00;100564.19;102820;1279;22480;-61
2022/12/25 01:51:17;;;;;;;;;;;;;;;5.85;100.00;100564.23;102847;1300;22450;-62
2022/12/25 01:53:51;;;;;;;20.60;5.00;;;;;;;5.85;100.00;100558.76;102828;1275;22817;-61
2022/12/25 01:56:25;;;;;;;23.70;5.20;;;;;;;5.86;100.00;100558.98;102784;1291;22488;-60
2022/12/25 01:58:58;;;;;;;13.70;4.20;;;;;;;5.88;100.00;100561.38;102965;1282;22469;-60
2022/12/25 02:01:29;;;;;;;20.70;4.50;;;;;;;5.89;100.00;100556.67;103159;1281;22485;-61
2022/12/25 02:04:06;;;;;;;17.60;4.80;;;;;;;5.91;100.00;100549.58;102972;1291;23103;-62
2022/12/25 02:06:38;;;;;;;19.60;4.50;;;;;;;5.93;100.00;100554.02;102804;1282;25361;-63
2022/12/25 02:09:10;;;;;;;17.60;4.50;;;;;;;5.93;100.00;100558.14;102864;1306;25329;-62
2022/12/25 02:11:56;;;;;;;17.70;4.10;;;;;;;5.93;100.00;100562.02;102806;1277;24453;-60
2022/12/25 02:14:33;;;;;;;16.10;4.00;;;;;;;5.93;100.00;100564.33;102981;1305;24175;-63
2022/12/25 02:17:13;;;;;;;18.60;4.40;;;;;;;5.92;100.00;100559.60;102910;1274;22479;-61
2022/12/25 02:20:15;;;;;;;13.00;3.30;;;;;;;5.92;100.00;100564.28;102841;1291;25298;-60
2022/12/25 02:22:58;;;;;;;15.50;4.30;;;;;;;5.92;99.99;100568.41;102977;1284;22461;-60
2022/12/25 02:25:43;;;;;;;16.40;4.40;;;;;;;5.91;99.96;100562.79;103102;1282;24330;-60
2022/12/25 02:28:21;;;;;;;13.90;3.90;;;;;;;5.90;99.87;100568.69;102870;1274;22469;-61
2022/12/25 02:31:01;;;;;;;14.50;3.30;;;;;;;5.90;99.77;100571.30;102798;1275;24261;-61
2022/12/25 02:36:33;;;;;;;15.50;4.30;;;;;;;5.90;99.85;100565.27;102962;1290;22480;-62
2022/12/25 02:42:04;;;;;;;17.50;4.70;;;;;;;5.93;99.78;100576.03;102769;1300;26845;-60
2022/12/25 03:07:21;;;;;;;13.30;3.40;;;;;;;5.94;99.80;100598.95;102840;1280;22476;-61
2022/12/25 03:12:53;;;;;;;15.80;3.60;;;;;;;5.93;99.98;100594.10;102768;1283;22557;-61
2022/12/25 03:18:21;;;;;;;13.20;4.10;;;;;;;5.96;99.93;100590.82;103017;1275;22470;-60
2022/12/25 03:32:27;;;;;;;13.40;3.00;;;;;;;5.95;99.62;100618.64;102670;1309;23505;-61
2022/12/25 03:35:26;;;;;;;14.90;3.50;;;;;;;5.95;99.57;100622.54;102912;1288;22941;-60
2022/12/25 04:38:44;;;;;;;24.00;9.30;;;;;;;5.59;97.93;100642.38;102779;1274;23081;-62
2022/12/25 04:41:16;;;;;;;27.00;9.50;;;;;;;5.55;97.78;100645.65;102910;1274;24308;-63
2022/12/25 04:43:47;;;;;;;20.30;6.30;;;;;;;5.51;97.64;100646.41;102870;1305;25321;-63
2022/12/25 04:46:19;;;;;;;21.60;8.60;;;;;;;5.45;97.43;100640.61;102940;1282;22467;-60
2022/12/25 04:48:50;;;;;;;19.50;6.00;;;;;;;5.40;97.43;100643.35;102926;1274;22487;-63
2022/12/25 04:51:23;;;;;;;22.50;6.70;;;;;;;5.35;97.40;100648.46;102772;1306;24283;-61
2022/12/25 04:53:56;;;;;;;18.80;5.70;;;;;;;5.28;97.41;100649.84;103014;1274;24346;-62
2022/12/25 04:56:27;;;;;;;19.70;6.80;;;;;;;5.23;97.49;100657.30;102901;1282;22479;-61
2022/12/25 04:58:59;;;;;;;17.20;5.50;;;;;;;5.20;97.64;100663.39;102870;1282;24334;-63
2022/12/25 05:01:33;;;;;;;17.10;5.10;;;;;;;5.15;97.44;100664.78;102767;1274;25344;-61
2022/12/25 05:04:05;;;;;;;20.50;5.20;;;;;;;5.11;97.35;100666.79;102836;1281;25512;-62
2022/12/25 05:06:37;;;;;;;15.40;4.50;;;;;;;5.08;97.41;100667.00;102876;1282;22466;-61
2022/12/25 05:09:12;;;;;;;15.30;4.70;;;;;;;5.06;97.55;100666.19;102875;1281;22466;-61
2022/12/25 05:11:46;;;;;;;15.20;4.50;;;;;;;5.03;97.32;100662.86;102902;1282;22458;-60
2022/12/25 05:14:17;;;;;;;19.80;4.40;;;;;;;5.01;97.32;100669.39;102932;1282;24370;-63
2022/12/25 05:16:49;;;;;;;17.10;5.10;;;;;;;4.97;97.06;100672.18;102810;1274;24268;-61
2022/12/25 05:19:21;;;;;;;17.20;5.20;;;;;;;4.93;97.00;100670.20;102966;1282;23276;-60
2022/12/25 05:21:52;;;;;;;13.70;3.80;;;;;;;4.90;96.82;100672.80;102995;1282;24472;-62
2022/12/25 05:24:27;;;;;;;17.80;5.00;;;;;;;4.87;96.64;100674.21;103083;1274;22574;-60
2022/12/25 05:26:59;;;;;;;22.50;6.10;;;;;;;4.81;96.40;100677.19;103053;1275;22473;-62
2022/12/25 05:29:31;;;;;;;21.40;8.30;;;;;;;4.75;96.44;100687.91;102886;1274;22474;-62
2022/12/25 05:32:02;;;;;;;21.90;6.90;;;;;;;4.71;96.28;100690.21;103143;1305;22475;-61
2022/12/25 05:34:34;;;;;;;23.10;8.70;;;;;;;4.66;96.50;100690.90;102958;1282;22673;-61
2022/12/25 05:37:06;;;;;;;23.40;8.80;;;;;;;4.61;96.65;100687.36;103034;1274;22704;-61
2022/12/25 05:39:37;;;;;;;24.20;8.50;;;;;;;4.58;96.83;100686.62;102871;1274;22489;-60
2022/12/25 05:42:09;;;;;;;21.30;7.20;;;;;;;4.58;97.15;100691.52;102954;1275;24260;-61
2022/12/25 05:44:40;;;;;;;20.20;6.80;;;;;;;4.58;97.18;100691.44;102975;1282;25623;-61
2022/12/25 05:47:12;;;;;;;21.80;5.90;;;;;;;4.58;97.13;100690.90;103114;1274;22474;-60
2022/12/25 05:49:44;;;;;;;18.00;6.20;;;;;;;4.57;97.15;100692.80;103315;1282;22472;-61
2022/12/25 05:52:15;;;;;;;15.10;4.00;;;;;;;4.56;97.10;100694.65;103068;1274;24388;-61
2022/12/25 05:54:46;;;;;;;19.40;4.70;;;;;;;4.55;97.15;100693.98;102889;1282;24461;-61
2022/12/25 05:57:20;;;;;;;24.90;4.90;;;;;;;4.53;97.13;100694.95;103188;1282;25354;-62
2022/12/25 05:59:52;;;;;;;18.00;4.90;;;;;;;4.52;97.12;100698.70;103148;1282;25328;-62
2022/12/25 06:02:23;;;;;;;17.00;4.70;;;;;;;4.48;96.97;100695.91;102897;1282;22483;-61
2022/12/25 06:04:54;;;;;;;17.40;5.20;;;;;;;4.46;97.11;100698.02;103059;1306;25338;-62
2022/12/25 06:07:26;;;;;;;16.70;3.50;;;;;;;4.45;96.95;100700.73;103185;1274;24347;-55
2022/12/25 06:09:58;;;;;;;17.60;3.90;;;;;;;4.44;96.86;100705.98;102835;1282;22468;-58
2022/12/25 06:12:30;;;;;;;14.00;4.00;;;;;;;4.41;96.88;100710.77;102846;1300;22479;-55
2022/12/25 06:15:01;;;;;;;13.80;3.90;;;;;;;4.39;96.82;100713.71;102969;1282;24247;-61
2022/12/25 06:17:32;;;;;;;18.40;4.30;;;;;;;4.39;96.70;100721.40;102862;1282;22470;-57
2022/12/25 06:20:04;;;;;;;18.00;4.30;;;;;;;4.36;96.56;100728.71;102791;1282;25323;-57
2022/12/25 06:22:36;;;;;;;24.50;6.50;;;;;;;4.34;96.48;100739.02;102951;1274;25396;-59
2022/12/25 06:25:09;;;;;;;17.10;4.70;;;;;;;4.28;96.16;100744.58;102950;1282;25378;-58
2022/12/25 06:27:40;;;;;;;20.30;5.00;;;;;;;4.24;96.37;100746.96;102782;1282;22480;-56
2022/12/25 06:30:17;;;;;;;14.00;3.60;;;;;;;4.23;96.61;100748.16;102991;1275;22474;-57
2022/12/25 06:32:49;;;;;;;16.10;4.40;;;;;;;4.23;96.67;100751.08;102794;1274;22555;-56
2022/12/25 06:35:20;;;;;;;16.20;4.80;;;;;;;4.22;96.40;100752.92;102816;1282;24417;-58
2022/12/25 06:37:52;;;;;;;20.90;5.90;;;;;;;4.20;96.41;100757.86;103015;1282;22488;-58
2022/12/25 06:40:25;;;;;;;17.00;5.20;;;;;;;4.19;96.39;100761.11;102954;1282;22584;-59
2022/12/25 06:42:58;;;;;;;22.60;7.40;;;;;;;4.18;96.39;100764.45;102840;1274;26532;-56
2022/12/25 06:45:30;;;;;;;20.10;5.80;;;;;;;4.16;96.25;100770.08;102769;1274;22483;-59
2022/12/25 06:48:02;;;;;;;21.80;6.40;;;;;;;4.14;96.15;100777.21;102805;1282;23210;-58
2022/12/25 06:50:33;;;;;;;22.30;6.00;;;;;;;4.13;96.10;100774.72;102853;1306;22579;-57
2022/12/25 06:53:05;;;;;;;24.30;7.30;;;;;;;4.09;95.83;100777.08;103002;1277;22470;-57
2022/12/25 06:55:36;;;;;;;24.30;7.70;;;;;;;4.00;95.77;100782.67;102882;1291;24411;-57
2022/12/25 06:58:08;;;;;;;24.30;7.10;;;;;;;3.92;96.01;100780.92;102731;1282;23226;-58
2022/12/25 07:00:39;;;;;;;20.00;6.50;;;;;;;3.90;96.12;100772.04;102962;1281;24324;-60
2022/12/25 07:03:13;;;;;;;16.60;5.30;;;;;;;3.90;96.14;100769.27;102846;1274;23968;-56
2022/12/25 07:05:46;;;;;;;20.40;6.00;;;;;;;3.90;96.17;100770.70;102894;1291;22478;-59
2022/12/25 07:08:17;;;;;;;22.70;6.40;;;;;;;3.89;96.20;100767.33;102798;1274;22482;-58
2022/12/25 07:10:49;;;;;;;24.60;6.30;;;;;;;3.87;95.86;100773.35;102804;1276;22472;-56
2022/12/25 07:13:20;;;;;;;19.40;5.80;;;;;;;3.86;95.92;100774.25;102815;1275;22489;-58
2022/12/25 07:15:57;;;;;;;21.30;7.50;;;;;;;3.85;95.91;100771.73;102808;1306;22465;-56
2022/12/25 07:18:31;;;;;;;23.00;6.70;;;;;;;3.83;95.61;100774.21;103130;1290;22474;-58
2022/12/25 07:21:07;;;;;;;33.70;13.40;;;;;;;3.79;95.35;100779.11;102852;1275;22613;-56
2022/12/25 07:23:38;;;;;;;37.70;13.50;;;;;;;3.75;95.13;100782.70;102898;1306;24219;-56
2022/12/25 07:26:12;;;;;;;50.90;18.90;;;;;;;3.74;95.40;100782.02;102982;1278;22460;-58
2022/12/25 07:28:43;;;;;;;62.10;26.40;;;;;;;3.72;95.36;100782.76;103256;1285;25319;-55
2022/12/25 07:31:18;;;;;;;66.70;29.00;;;;;;;3.72;95.31;100786.48;102853;1291;22485;-57
2022/12/25 07:33:52;;;;;;;68.30;26.90;;;;;;;3.71;95.26;100791.08;102836;1281;22480;-57
2022/12/25 07:36:24;;;;;;;61.50;25.70;;;;;;;3.69;95.28;100792.83;102926;1280;25313;-58
2022/12/25 07:38:56;;;;;;;47.90;20.40;;;;;;;3.68;95.45;100796.25;102810;1306;25397;-55
2022/12/25 07:41:28;;;;;;;53.70;20.90;;;;;;;3.67;95.46;100797.11;102829;1282;24191;-58
2022/12/25 07:44:01;;;;;;;41.50;18.30;;;;;;;3.66;95.51;100790.88;102904;1282;22478;-55
2022/12/25 07:46:33;;;;;;;41.10;17.60;;;;;;;3.67;95.59;100792.79;102946;1291;22596;-60
2022/12/25 07:49:07;;;;;;;36.20;15.10;;;;;;;3.66;95.52;100787.83;102809;1305;22474;-59
2022/12/25 07:51:39;;;;;;;29.80;11.30;;;;;;;3.66;95.57;100791.93;103545;1282;22472;-58
2022/12/25 07:54:10;;;;;;;27.10;10.90;;;;;;;3.66;95.69;100786.16;102872;1274;23990;-55
2022/12/25 07:56:42;;;;;;;24.40;9.30;;;;;;;3.66;95.75;100780.17;102993;1306;22539;-58
2022/12/25 07:59:13;;;;;;;23.10;8.80;;;;;;;3.67;95.81;100790.27;102698;1274;22467;-61
2022/12/25 08:01:44;;;;;;;24.70;9.80;;;;;;;3.66;95.87;100796.50;103167;1282;24261;-56
2022/12/25 08:04:15;;;;;;;20.40;7.60;;;;;;;3.67;96.10;100802.96;104257;1274;22485;-59
2022/12/25 08:06:47;;;;;;;32.00;9.10;;;;;;;3.68;96.01;100804.38;104315;1280;24292;-57
2022/12/25 08:09:18;;;;;;;22.00;8.40;;;;;;;3.67;96.05;100795.30;102817;1290;24298;-63
2022/12/25 08:11:49;;;;;;;23.80;8.30;;;;;;;3.68;96.05;100794.05;102998;1282;22487;-64
2022/12/25 08:14:21;;;;;;;24.10;8.80;;;;;;;3.68;95.98;100793.48;102912;1282;24318;-60
2022/12/25 08:16:52;;;;;;;22.50;8.80;;;;;;;3.69;96.09;100797.89;102993;1306;26625;-61
2022/12/25 08:19:24;;;;;;;26.10;9.30;;;;;;;3.69;96.16;100800.33;103327;1281;24328;-61
2022/12/25 08:21:55;;;;;;;24.60;10.10;;;;;;;3.70;96.15;100798.27;102897;1282;24347;-63
2022/12/25 08:24:27;;;;;;;23.50;9.50;;;;;;;3.70;96.27;100795.49;102975;1282;24295;-60
2022/12/25 08:26:58;;;;;;;28.50;10.80;;;;;;;3.71;96.20;100795.88;103018;1282;22516;-63
2022/12/25 08:29:29;;;;;;;25.60;11.20;;;;;;;3.70;96.32;100790.93;102878;1282;23218;-61
2022/12/25 08:32:02;;;;;;;31.90;12.10;;;;;;;3.69;96.45;100794.89;103901;1282;23227;-62
2022/12/25 08:34:34;;;;;;;30.30;11.50;;;;;;;3.67;96.51;100805.25;102947;1290;22511;-62
2022/12/25 08:37:06;;;;;;;23.80;9.80;;;;;;;3.66;96.64;100810.39;102996;1278;22477;-60
2022/12/25 08:39:37;;;;;;;25.90;9.30;;;;;;;3.65;96.83;100814.11;105445;1280;22488;-60
2022/12/25 08:42:09;;;;;;;22.80;9.10;;;;;;;3.65;97.21;100816.88;102800;1282;24259;-60
2022/12/25 08:44:40;;;;;;;31.30;11.00;;;;;;;3.67;97.23;100822.60;104449;1282;22500;-64
2022/12/25 08:47:12;;;;;;;29.20;9.80;;;;;;;3.68;97.22;100826.54;102936;1282;26543;-58
2022/12/25 08:49:44;;;;;;;33.70;10.90;;;;;;;3.69;97.34;100827.86;103117;1306;22670;-62
2022/12/25 08:52:16;;;;;;;25.00;9.10;;;;;;;3.71;97.34;100826.17;102868;1274;24337;-59
2022/12/25 08:54:50;;;;;;;28.20;9.90;;;;;;;3.71;97.51;100829.48;103055;1284;22520;-58
2022/12/25 08:57:22;;;;;;;27.20;9.60;;;;;;;3.73;97.51;100831.98;106693;1281;22255;-59
2022/12/25 08:59:53;;;;;;;23.30;9.10;;;;;;;3.74;97.63;100835.75;103346;1281;22465;-57
2022/12/25 09:02:25;;;;;;;26.30;8.80;;;;;;;3.75;97.73;100831.86;103281;1274;22621;-57
2022/12/25 09:04:56;;;;;;;27.80;7.90;;;;;;;3.78;97.84;100841.20;103064;1274;22514;-58
2022/12/25 09:07:28;;;;;;;26.30;7.60;;;;;;;3.80;97.91;100844.09;103745;1278;26496;-55
2022/12/25 09:10:00;;;;;;;24.60;6.60;;;;;;;3.83;98.07;100839.71;104115;1281;25367;-59
2022/12/25 09:12:31;;;;;;;19.90;6.20;;;;;;;3.86;98.15;100842.66;102934;1282;22487;-58
2022/12/25 09:15:07;;;;;;;22.30;7.20;;;;;;;3.90;98.37;100841.26;102771;1281;24521;-58
2022/12/25 09:17:38;;;;;;;25.50;7.20;;;;;;;3.94;98.66;100839.91;102960;1280;22518;-57
2022/12/25 09:20:12;;;;;;;28.00;8.70;;;;;;;3.98;98.66;100836.63;102816;1285;26288;-58
2022/12/25 09:22:43;;;;;;;26.80;6.50;;;;;;;4.02;98.64;100833.02;102923;1297;22533;-58
2022/12/25 09:25:15;;;;;;;26.10;8.10;;;;;;;4.06;98.70;100830.34;102966;1282;22473;-59
2022/12/25 09:27:46;;;;;;;24.20;7.90;;;;;;;4.10;98.98;100829.80;104312;1280;22470;-59
2022/12/25 09:30:19;;;;;;;20.10;6.20;;;;;;;4.15;99.18;100829.70;104043;1306;25103;-56
2022/12/25 09:32:52;;;;;;;22.70;8.30;;;;;;;4.21;99.37;100825.74;102916;1282;22936;-58
2022/12/25 09:35:23;;;;;;;25.50;7.60;;;;;;;4.26;99.37;100824.23;103067;1282;22696;-59
2022/12/25 09:37:54;;;;;;;22.10;7.20;;;;;;;4.31;99.43;100826.73;103044;1306;26732;-59
2022/12/25 09:40:30;;;;;;;21.30;7.30;;;;;;;4.37;99.53;100829.94;102953;1274;24396;-60
2022/12/25 09:43:02;;;;;;;25.50;7.80;;;;;;;4.42;99.56;100827.80;102923;1295;22476;-56
2022/12/25 09:45:38;;;;;;;27.10;7.80;;;;;;;4.47;99.60;100826.76;103096;1307;22588;-59
2022/12/25 09:48:15;;;;;;;27.80;7.90;;;;;;;4.53;99.63;100831.15;102872;1306;25511;-58
2022/12/25 09:50:51;;;;;;;25.80;7.00;;;;;;;4.56;99.58;100834.80;102944;1306;23776;-56
2022/12/25 09:53:25;;;;;;;26.90;8.00;;;;;;;4.61;99.62;100835.10;102955;1280;22471;-57
2022/12/25 09:56:04;;;;;;;19.60;6.10;;;;;;;4.67;99.72;100839.17;103027;1306;22471;-59
2022/12/25 09:58:36;;;;;;;29.50;7.70;;;;;;;4.72;99.67;100841.05;102971;1306;24264;-59
2022/12/25 10:01:13;;;;;;;24.10;7.70;;;;;;;4.77;99.72;100833.92;102968;1281;25416;-57
2022/12/25 10:04:01;;;;;;;21.70;7.00;;;;;;;4.82;99.85;100833.41;102928;1306;22467;-58
2022/12/25 10:06:42;;;;;;;29.00;7.10;;;;;;;4.89;99.83;100832.18;102914;1306;22894;-57
2022/12/25 10:09:32;;;;;;;25.50;6.90;;;;;;;4.92;99.63;100825.55;103030;1282;22468;-58
2022/12/25 10:12:22;;;;;;;23.00;7.70;;;;;;;4.96;99.55;100823.65;102870;1282;22480;-56
2022/12/25 10:15:14;;;;;;;20.80;7.30;;;;;;;4.99;99.53;100819.32;102812;1304;24462;-57
2022/12/25 10:18:05;;;;;;;22.30;8.60;;;;;;;5.04;99.64;100813.61;103049;1282;26217;-56
2022/12/25 10:20:40;;;;;;;;;;;;;;;5.10;99.89;100811.58;103179;1281;24318;-57
2022/12/25 10:23:18;;;;;;;25.60;6.70;;;;;;;5.15;99.81;100814.88;103077;1306;25384;-58
2022/12/25 10:25:51;;;;;;;25.30;8.80;;;;;;;5.18;99.77;100815.76;102915;1306;22493;-59
2022/12/25 10:28:28;;;;;;;22.20;7.80;;;;;;;5.21;99.80;100809.04;102883;1282;22478;-58
2022/12/25 10:31:02;;;;;;;28.90;8.90;;;;;;;5.24;99.82;100805.27;102966;1282;22645;-58
2022/12/25 10:33:34;;;;;;;31.30;9.00;;;;;;;5.29;99.91;100809.02;103006;1282;22465;-58
2022/12/25 10:36:06;;;;;;;26.10;9.00;;;;;;;5.33;99.93;100805.53;102867;1306;26732;-56
2022/12/25 10:38:38;;;;;;;25.90;7.50;;;;;;;5.37;99.94;100802.77;102966;1291;24295;-58
2022/12/25 10:41:25;;;;;;;26.20;6.90;;;;;;;5.41;99.96;100797.52;102860;1306;22471;-56
2022/12/25 10:43:57;;;;;;;23.90;6.80;;;;;;;5.46;99.98;100796.85;102826;1282;22464;-58
2022/12/25 10:46:31;;;;;;;26.00;7.90;;;;;;;5.51;99.99;100794.11;103242;1278;24410;-59
2022/12/25 10:49:03;;;;;;;23.90;7.70;;;;;;;5.56;100.00;100790.43;102879;1280;26286;-58
2022/12/25 10:51:37;;;;;;;28.50;10.20;;;;;;;5.61;100.00;100790.48;102991;1306;24432;-56
2022/12/25 10:54:23;;;;;;;27.30;8.90;;;;;;;5.66;100.00;100787.60;102972;1274;22604;-57
2022/12/25 10:56:59;;;;;;;28.90;9.00;;;;;;;5.71;100.00;100786.20;102932;1306;22475;-56
2022/12/25 10:59:34;;;;;;;31.10;8.90;;;;;;;5.76;100.00;100786.08;102957;1301;24335;-58
2022/12/25 11:02:16;;;;;;;24.40;9.00;;;;;;;5.83;100.00;100783.08;102943;1305;22604;-58
2022/12/25 11:04:48;;;;;;;33.40;11.00;;;;;;;5.92;100.00;100779.23;102928;1306;25307;-56
2022/12/25 11:07:26;;;;;;;33.70;10.10;;;;;;;5.99;100.00;100776.19;102956;1295;22548;-58
2022/12/25 11:09:59;;;;;;;24.90;8.00;;;;;;;6.04;100.00;100775.83;102939;1282;22577;-60
2022/12/25 11:12:35;;;;;;;22.80;6.50;;;;;;;6.08;100.00;100765.80;103129;1278;22463;-58
2022/12/25 11:15:22;;;;;;;26.60;7.30;;;;;;;6.12;100.00;100756.52;102989;1282;22725;-59
2022/12/25 11:17:56;;;;;;;21.10;5.90;;;;;;;6.19;100.00;100748.42;102949;1305;22508;-59
2022/12/25 11:20:29;;;;;;;24.10;9.30;;;;;;;6.24;100.00;100744.86;103041;1282;24454;-58
2022/12/25 11:23:00;;;;;;;33.30;8.20;;;;;;;6.29;100.00;100734.84;102934;1306;22488;-57
2022/12/25 11:25:31;;;;;;;28.10;8.50;;;;;;;6.32;100.00;100735.92;103131;1290;22480;-58
2022/12/25 11:28:05;;;;;;;26.50;8.40;;;;;;;6.35;100.00;100730.16;103009;1299;22554;-59
2022/12/25 11:30:40;;;;;;;29.40;8.00;;;;;;;6.39;100.00;100726.64;102899;1282;25350;-55
2022/12/25 11:33:15;;;;;;;24.80;8.50;;;;;;;6.43;100.00;100728.40;102892;1282;25919;-60
2022/12/25 11:35:51;;;;;;;30.30;9.70;;;;;;;6.49;100.00;100734.51;103022;1288;22481;-58
2022/12/25 11:38:24;;;;;;;21.90;6.90;;;;;;;6.55;100.00;100739.27;102941;1306;22492;-59
2022/12/25 11:41:00;;;;;;;25.40;7.30;;;;;;;6.60;100.00;100737.68;103134;1305;24248;-59
2022/12/25 11:43:39;;;;;;;24.10;6.70;;;;;;;6.67;100.00;100731.06;103079;1284;22666;-56
2022/12/25 11:46:18;;;;;;;23.40;7.20;;;;;;;6.70;100.00;100724.89;102862;1282;24382;-58
2022/12/25 11:48:55;;;;;;;29.80;6.50;;;;;;;6.73;100.00;100728.52;102911;1306;24280;-56
2022/12/25 11:51:32;;;;;;;20.60;5.70;;;;;;;6.76;100.00;100731.50;102977;1281;24385;-57
2022/12/25 11:54:14;;;;;;;22.90;6.00;;;;;;;6.78;100.00;100730.65;103036;1275;22475;-59
2022/12/25 11:56:46;;;;;;;22.00;7.50;;;;;;;6.81;100.00;100719.95;102957;1280;25326;-58
2022/12/25 11:59:22;;;;;;;26.70;6.70;;;;;;;6.83;100.00;100718.46;102932;1306;22477;-61
2022/12/25 12:02:01;;;;;;;21.20;7.30;;;;;;;6.85;100.00;100717.04;103005;1299;22666;-59
2022/12/25 12:04:37;;;;;;;25.90;8.00;;;;;;;6.90;100.00;100723.86;103007;1290;24451;-59
2022/12/25 12:07:19;;;;;;;30.90;8.00;;;;;;;6.94;100.00;100725.09;102956;1282;25325;-58
2022/12/25 12:10:03;;;;;;;22.80;7.70;;;;;;;6.97;100.00;100729.36;102922;1282;22463;-57
2022/12/25 12:12:44;;;;;;;25.30;7.50;;;;;;;7.02;100.00;100727.72;102909;1282;22483;-59
2022/12/25 12:15:25;;;;;;;23.90;6.60;;;;;;;7.05;100.00;100724.59;102895;1280;24336;-59
2022/12/25 12:18:07;;;;;;;28.60;6.50;;;;;;;7.08;100.00;100720.69;102939;1306;23100;-56
2022/12/25 12:20:39;;;;;;;30.10;6.50;;;;;;;7.12;99.91;100720.58;102969;1306;23260;-58
2022/12/25 12:23:17;;;;;;;20.70;4.80;;;;;;;7.15;99.91;100721.05;103132;1281;22478;-57
2022/12/25 12:25:49;;;;;;;19.90;5.80;;;;;;;7.18;99.57;100719.60;103055;1306;24379;-59
2022/12/25 12:28:26;;;;;;;20.10;6.00;;;;;;;7.21;99.75;100714.18;102966;1282;22607;-59
2022/12/25 12:31:07;;;;;;;22.20;6.40;;;;;;;7.25;99.65;100709.54;102976;1306;24452;-58
2022/12/25 12:33:38;;;;;;;;;;;;;;;7.28;99.58;100712.20;102943;1306;25288;-57
2022/12/25 12:36:14;;;;;;;23.50;7.20;;;;;;;7.31;99.50;100712.98;102895;1306;22469;-59
2022/12/25 12:38:46;;;;;;;26.90;7.70;;;;;;;7.39;99.68;100705.63;102947;1307;23870;-57
2022/12/25 12:41:20;;;;;;;23.80;8.00;;;;;;;7.44;99.79;100699.56;102970;1303;25554;-57
2022/12/25 12:43:57;;;;;;;24.60;6.90;;;;;;;7.49;99.83;100696.95;102996;1282;25310;-59
2022/12/25 12:46:31;;;;;;;26.10;8.40;;;;;;;7.54;99.63;100699.08;103223;1282;25377;-58
2022/12/25 12:49:20;;;;;;;26.80;7.40;;;;;;;7.58;99.64;100700.98;102953;1282;22479;-58
2022/12/25 12:52:02;;;;;;;27.10;7.40;;;;;;;7.62;99.59;100705.16;102984;1282;24318;-60
2022/12/25 12:54:53;;;;;;;30.40;7.40;;;;;;;7.66;99.35;100708.75;102895;1282;22503;-59
2022/12/25 12:57:28;;;;;;;25.10;7.60;;;;;;;7.70;99.43;100710.29;103045;1282;22483;-58
2022/12/25 13:00:05;;;;;;;23.80;6.70;;;;;;;7.70;99.29;100716.02;102984;1305;23944;-58
2022/12/25 13:03:03;;;;;;;23.70;7.10;;;;;;;7.70;99.16;100718.94;102844;1308;22526;-59
2022/12/25 13:05:40;;;;;;;22.80;7.00;;;;;;;7.71;99.10;100711.11;103031;1282;22506;-55
2022/12/25 13:08:28;;;;;;;22.40;7.40;;;;;;;7.72;99.03;100703.77;103004;1306;22455;-57
2022/12/25 13:11:13;;;;;;;18.80;5.40;;;;;;;7.73;98.54;100704.39;102952;1307;25561;-57
2022/12/25 13:13:48;;;;;;;19.00;4.10;;;;;;;7.76;98.49;100699.29;102950;1307;22479;-58
2022/12/25 13:16:27;;;;;;;20.20;5.30;;;;;;;7.79;98.81;100689.58;102963;1281;25335;-58
2022/12/25 13:19:00;;;;;;;24.80;5.90;;;;;;;7.81;98.97;100685.43;102918;1282;25237;-58
2022/12/25 13:21:33;;;;;;;21.60;4.70;;;;;;;7.83;98.72;100691.10;102931;1297;22476;-59
2022/12/25 13:24:20;;;;;;;18.10;4.50;;;;;;;7.85;98.42;100695.30;103151;1306;22489;-59
2022/12/25 13:26:51;;;;;;;17.10;4.30;;;;;;;7.88;98.30;100701.33;102997;1281;25394;-60
2022/12/25 13:29:31;;;;;;;19.50;3.70;;;;;;;7.89;98.29;100705.23;102995;1288;25362;-57
2022/12/25 13:32:04;;;;;;;19.00;4.30;;;;;;;7.90;98.21;100701.17;102967;1298;23214;-56
2022/12/25 13:34:38;;;;;;;19.60;4.90;;;;;;;7.89;98.05;100702.02;102934;1301;25499;-59
2022/12/25 13:37:14;;;;;;;17.80;4.20;;;;;;;7.88;97.88;100693.95;102956;1306;25382;-59